<?xml version="1.0" encoding="UTF-8" standalone="no" ?>
<gpx xmlns="http://www.topografix.com/GPX/1/1" xmlns:xsi="http://www.w3.org/2001/XMLSchema-instance" xsi:schemaLocation="http://www.topografix.com/GPX/1/1 http://www.topografix.com/GPX/1/1/gpx.xsd" version="1.1" creator="VisuGPX - https://www.visugpx.com">
  <metadata>
    <name>Etape 2 Férel - Les Moûtiers</name>
    <desc><![CDATA[Randonnée vélo Rennes - Hendaye, empruntant la Vélodyssée à partir de Saint-Brevin-Les-Pins. ]]></desc>
  </metadata>
  <trk>
    <name><![CDATA[Sequence 28]]></name>
    <trkseg>
      <trkpt lat="47.12427" lon="-2.09109">
        <ele>26</ele>
        <time>2016-07-22T13:23:28Z</time>
      </trkpt>
      <trkpt lat="47.12427" lon="-2.09109">
        <ele>26</ele>
        <time>2016-07-22T13:23:33Z</time>
      </trkpt>
      <trkpt lat="47.12422" lon="-2.09107">
        <ele>24</ele>
        <time>2016-07-22T13:23:38Z</time>
      </trkpt>
      <trkpt lat="47.12415" lon="-2.09102">
        <ele>23</ele>
        <time>2016-07-22T13:23:43Z</time>
      </trkpt>
      <trkpt lat="47.12407" lon="-2.09099">
        <ele>22</ele>
        <time>2016-07-22T13:23:50Z</time>
      </trkpt>
      <trkpt lat="47.12398" lon="-2.09093">
        <ele>21</ele>
        <time>2016-07-22T13:23:55Z</time>
      </trkpt>
      <trkpt lat="47.12393" lon="-2.09088">
        <ele>18</ele>
        <time>2016-07-22T13:23:58Z</time>
      </trkpt>
      <trkpt lat="47.1238" lon="-2.0908">
        <ele>18</ele>
        <time>2016-07-22T13:24:03Z</time>
      </trkpt>
      <trkpt lat="47.12368" lon="-2.09074">
        <ele>16</ele>
        <time>2016-07-22T13:24:08Z</time>
      </trkpt>
      <trkpt lat="47.12351" lon="-2.09072">
        <ele>15</ele>
        <time>2016-07-22T13:24:13Z</time>
      </trkpt>
      <trkpt lat="47.12339" lon="-2.09071">
        <ele>15</ele>
        <time>2016-07-22T13:24:18Z</time>
      </trkpt>
      <trkpt lat="47.12316" lon="-2.09065">
        <ele>17</ele>
        <time>2016-07-22T13:24:25Z</time>
      </trkpt>
      <trkpt lat="47.12305" lon="-2.09059">
        <ele>18</ele>
        <time>2016-07-22T13:24:28Z</time>
      </trkpt>
      <trkpt lat="47.12282" lon="-2.09051">
        <ele>17</ele>
        <time>2016-07-22T13:24:33Z</time>
      </trkpt>
      <trkpt lat="47.12257" lon="-2.09063">
        <ele>16</ele>
        <time>2016-07-22T13:24:40Z</time>
      </trkpt>
      <trkpt lat="47.12241" lon="-2.09068">
        <ele>16</ele>
        <time>2016-07-22T13:24:43Z</time>
      </trkpt>
      <trkpt lat="47.12213" lon="-2.09071">
        <ele>14</ele>
        <time>2016-07-22T13:24:48Z</time>
      </trkpt>
      <trkpt lat="47.12201" lon="-2.09075">
        <ele>16</ele>
        <time>2016-07-22T13:24:54Z</time>
      </trkpt>
      <trkpt lat="47.12191" lon="-2.09075">
        <ele>16</ele>
        <time>2016-07-22T13:24:58Z</time>
      </trkpt>
      <trkpt lat="47.1217" lon="-2.09072">
        <ele>13</ele>
        <time>2016-07-22T13:25:03Z</time>
      </trkpt>
      <trkpt lat="47.12139" lon="-2.09079">
        <ele>11</ele>
        <time>2016-07-22T13:25:08Z</time>
      </trkpt>
      <trkpt lat="47.12117" lon="-2.09085">
        <ele>10</ele>
        <time>2016-07-22T13:25:13Z</time>
      </trkpt>
      <trkpt lat="47.121" lon="-2.0906">
        <ele>16</ele>
        <time>2016-07-22T13:25:18Z</time>
      </trkpt>
      <trkpt lat="47.12079" lon="-2.09055">
        <ele>15</ele>
        <time>2016-07-22T13:25:27Z</time>
      </trkpt>
      <trkpt lat="47.12064" lon="-2.09069">
        <ele>16</ele>
        <time>2016-07-22T13:25:32Z</time>
      </trkpt>
      <trkpt lat="47.12062" lon="-2.09071">
        <ele>16</ele>
        <time>2016-07-22T13:25:33Z</time>
      </trkpt>
      <trkpt lat="47.1204" lon="-2.09076">
        <ele>14</ele>
        <time>2016-07-22T13:25:39Z</time>
      </trkpt>
      <trkpt lat="47.12027" lon="-2.09075">
        <ele>15</ele>
        <time>2016-07-22T13:25:43Z</time>
      </trkpt>
      <trkpt lat="47.12017" lon="-2.09075">
        <ele>15</ele>
        <time>2016-07-22T13:25:48Z</time>
      </trkpt>
      <trkpt lat="47.12005" lon="-2.09071">
        <ele>13</ele>
        <time>2016-07-22T13:25:53Z</time>
      </trkpt>
      <trkpt lat="47.11971" lon="-2.09076">
        <ele>10</ele>
        <time>2016-07-22T13:26:02Z</time>
      </trkpt>
      <trkpt lat="47.11969" lon="-2.09075">
        <ele>10</ele>
        <time>2016-07-22T13:26:03Z</time>
      </trkpt>
      <trkpt lat="47.11961" lon="-2.09054">
        <ele>8</ele>
        <time>2016-07-22T13:26:10Z</time>
      </trkpt>
      <trkpt lat="47.11956" lon="-2.09052">
        <ele>6</ele>
        <time>2016-07-22T13:26:16Z</time>
      </trkpt>
      <trkpt lat="47.11948" lon="-2.09051">
        <ele>9</ele>
        <time>2016-07-22T13:26:22Z</time>
      </trkpt>
      <trkpt lat="47.11947" lon="-2.0905">
        <ele>9</ele>
        <time>2016-07-22T13:26:23Z</time>
      </trkpt>
      <trkpt lat="47.11934" lon="-2.09042">
        <ele>8</ele>
        <time>2016-07-22T13:26:32Z</time>
      </trkpt>
      <trkpt lat="47.11934" lon="-2.09042">
        <ele>7</ele>
        <time>2016-07-22T13:26:33Z</time>
      </trkpt>
    </trkseg>
  </trk>
</gpx>